createdAt,value
2019-04-05T00:00:32.600Z,65.23
2019-04-05T00:03:01.573Z,57.73
2019-04-05T00:05:31.314Z,54.17
2019-04-05T00:08:00.772Z,60.97
2019-04-05T00:10:30.319Z,55.77
2019-04-05T00:12:59.861Z,59.60
2019-04-05T00:15:32.409Z,57.00
2019-04-05T00:18:01.949Z,57.63
2019-04-05T00:20:31.491Z,57.13
2019-04-05T00:23:01.025Z,58.27
2019-04-05T00:25:31.170Z,53.83
2019-04-05T00:28:00.701Z,52.43
2019-04-05T00:30:30.248Z,55.10
2019-04-05T00:32:59.772Z,53.57
2019-04-05T00:35:29.720Z,57.83
2019-04-05T00:37:59.181Z,60.43
2019-04-05T00:40:28.655Z,56.27
2019-04-05T00:42:58.198Z,64.83
2019-04-05T00:45:28.789Z,55.10
2019-04-05T00:47:58.547Z,57.43
2019-04-05T00:50:28.101Z,60.10
2019-04-05T00:52:57.621Z,61.07
2019-04-05T00:55:27.467Z,59.20
2019-04-05T00:57:56.928Z,63.43
2019-04-05T01:00:26.464Z,67.10
2019-04-05T01:02:56.012Z,63.90
2019-04-05T01:05:25.546Z,62.00
2019-04-05T01:07:55.747Z,63.60
2019-04-05T01:10:25.285Z,65.83
2019-04-05T01:12:55.301Z,70.00
2019-04-05T01:15:24.843Z,73.70
2019-04-05T01:17:55.251Z,59.27
2019-04-05T01:20:28.052Z,64.20
2019-04-05T01:22:59.997Z,68.33
2019-04-05T01:25:30.663Z,71.33
2019-04-05T01:28:00.648Z,71.60
2019-04-05T01:30:30.285Z,70.17
2019-04-05T01:33:00.323Z,70.17
2019-04-05T01:35:30.130Z,69.03
2019-04-05T01:38:00.100Z,66.53
2019-04-05T01:40:32.554Z,66.90
2019-04-05T01:43:02.160Z,76.57
2019-04-05T01:45:31.775Z,81.93
2019-04-05T01:48:01.403Z,67.60
2019-04-05T01:50:31.418Z,65.00
2019-04-05T01:53:01.007Z,67.10
2019-04-05T01:55:30.539Z,76.47
2019-04-05T01:58:00.952Z,69.87
2019-04-05T02:00:30.558Z,73.83
2019-04-05T02:03:00.158Z,62.43
2019-04-05T02:05:29.774Z,64.40
2019-04-05T02:07:59.717Z,66.13
2019-04-05T02:10:29.252Z,76.57
2019-04-05T02:12:58.795Z,69.30
2019-04-05T02:15:31.406Z,74.33
2019-04-05T02:18:00.880Z,71.53
2019-04-05T02:20:30.413Z,69.63
2019-04-05T02:23:00.120Z,82.27
2019-04-05T02:25:29.644Z,70.13
2019-04-05T02:27:59.177Z,68.27
2019-04-05T02:30:28.836Z,70.20
2019-04-05T02:32:58.315Z,73.53
2019-04-05T02:35:33.596Z,71.00
2019-04-05T02:38:03.384Z,76.13
2019-04-05T02:40:36.225Z,73.13
2019-04-05T02:43:07.629Z,73.37
2019-04-05T02:45:39.512Z,69.20
2019-04-05T02:48:11.329Z,78.73
2019-04-05T02:50:44.057Z,81.33
2019-04-05T02:53:15.800Z,74.50
2019-04-05T02:55:46.207Z,82.37
2019-04-05T02:58:16.776Z,76.53
2019-04-05T03:00:47.569Z,76.27
2019-04-05T03:03:17.407Z,88.07
2019-04-05T03:05:47.587Z,79.10
2019-04-05T03:08:18.191Z,78.30
2019-04-05T03:11:05.694Z,80.00
2019-04-05T03:13:38.348Z,83.40
2019-04-05T03:16:11.139Z,82.17
2019-04-05T03:18:44.089Z,82.50
2019-04-05T03:21:15.680Z,85.40
2019-04-05T03:23:45.952Z,91.63
2019-04-05T03:26:18.588Z,88.87
2019-04-05T03:28:51.464Z,80.70
2019-04-05T03:31:25.134Z,81.00
2019-04-05T03:33:53.689Z,85.70
2019-04-05T03:36:24.044Z,81.50
2019-04-05T03:38:53.901Z,77.87
2019-04-05T03:41:23.540Z,78.40
2019-04-05T03:43:53.486Z,76.30
2019-04-05T03:46:23.376Z,79.23
2019-04-05T03:48:53.185Z,73.60
2019-04-05T03:51:23.517Z,66.80
2019-04-05T03:53:53.190Z,71.53
2019-04-05T03:56:23.067Z,61.20
2019-04-05T03:58:53.010Z,77.10
2019-04-05T04:01:22.802Z,68.30
2019-04-05T04:03:52.505Z,69.53
2019-04-05T04:06:22.417Z,62.87
2019-04-05T04:08:52.097Z,66.03
2019-04-05T04:11:21.827Z,66.03
2019-04-05T04:13:52.117Z,63.83
2019-04-05T04:16:22.489Z,63.67
2019-04-05T04:18:52.299Z,68.53
2019-04-05T04:21:48.980Z,60.90
2019-04-05T04:24:19.518Z,61.97
2019-04-05T04:26:51.063Z,62.23
2019-04-05T04:29:33.122Z,60.67
2019-04-05T04:32:02.924Z,62.77
2019-04-05T04:34:32.558Z,54.93
2019-04-05T04:37:02.101Z,62.37
2019-04-05T04:39:31.735Z,56.53
2019-04-05T04:42:02.073Z,61.20
2019-04-05T04:44:31.532Z,53.97
2019-04-05T04:47:01.409Z,56.20
2019-04-05T04:49:31.887Z,53.50
2019-04-05T04:52:02.239Z,49.93
2019-04-05T04:54:32.169Z,52.70
2019-04-05T04:57:01.981Z,57.20
2019-04-05T04:59:31.683Z,59.10
2019-04-05T05:02:01.410Z,52.83
2019-04-05T05:04:31.204Z,53.43
2019-04-05T05:07:01.016Z,62.33
2019-04-05T05:09:32.095Z,57.53
2019-04-05T05:12:02.284Z,53.57
2019-04-05T05:14:32.594Z,57.00
2019-04-05T05:17:02.496Z,53.10
2019-04-05T05:19:32.361Z,55.00
2019-04-05T05:22:02.260Z,61.37
2019-04-05T05:24:32.228Z,51.67
2019-04-05T05:27:02.023Z,54.87
2019-04-05T05:29:32.131Z,54.87
2019-04-05T05:32:01.945Z,60.17
2019-04-05T05:34:32.421Z,55.20
2019-04-05T05:37:02.388Z,50.50
2019-04-05T05:39:31.993Z,56.20
2019-04-05T05:42:01.802Z,53.70
2019-04-05T05:44:31.512Z,53.30
2019-04-05T05:47:01.168Z,60.60
2019-04-05T05:49:30.628Z,51.57
2019-04-05T05:52:00.639Z,49.40
2019-04-05T05:54:30.169Z,56.37
2019-04-05T05:56:59.644Z,54.07
2019-04-05T05:59:30.282Z,55.10
2019-04-05T06:02:00.501Z,48.23
2019-04-05T06:04:29.960Z,52.30
2019-04-05T06:06:59.427Z,51.20
2019-04-05T06:09:29.271Z,53.00
2019-04-05T06:11:59.341Z,56.17
2019-04-05T06:14:28.901Z,56.40
2019-04-05T06:16:58.356Z,52.87
2019-04-05T06:19:27.932Z,50.90
2019-04-05T06:21:57.398Z,51.67
2019-04-05T06:24:26.876Z,53.37
2019-04-05T06:26:56.400Z,54.07
2019-04-05T06:29:25.881Z,48.57
2019-04-05T06:31:55.420Z,54.00
2019-04-05T06:34:24.973Z,54.20
2019-04-05T06:36:54.509Z,46.77
2019-04-05T06:39:24.065Z,56.87
2019-04-05T06:41:53.608Z,51.70
2019-04-05T06:44:23.152Z,54.40
2019-04-05T06:46:52.692Z,56.67
2019-04-05T06:49:22.232Z,51.90
2019-04-05T06:51:51.948Z,53.00
2019-04-05T06:54:21.489Z,51.87
2019-04-05T06:56:51.109Z,48.30
2019-04-05T06:59:20.759Z,57.23
2019-04-05T07:01:50.364Z,49.00
2019-04-05T07:04:19.913Z,56.53
2019-04-05T07:06:49.373Z,56.20
2019-04-05T07:09:18.927Z,49.53
2019-04-05T07:11:48.460Z,53.17
2019-04-05T07:14:18.199Z,52.40
2019-04-05T07:16:47.900Z,58.43
2019-04-05T07:19:17.469Z,47.63
2019-04-05T07:21:47.292Z,51.60
2019-04-05T07:24:17.008Z,52.57
2019-04-05T07:26:46.537Z,53.33
2019-04-05T07:29:16.170Z,53.33
2019-04-05T07:31:45.629Z,53.63
2019-04-05T07:34:15.179Z,50.00
2019-04-05T07:36:44.646Z,49.17
2019-04-05T07:39:14.204Z,45.47
2019-04-05T07:41:43.676Z,48.80
2019-04-05T07:44:13.238Z,57.67
2019-04-05T07:46:42.784Z,58.53
2019-04-05T07:49:12.272Z,52.20
2019-04-05T07:51:41.813Z,57.17
2019-04-05T07:54:11.419Z,50.53
2019-04-05T07:56:41.039Z,52.87
2019-04-05T07:59:10.589Z,49.57
2019-04-05T08:01:40.208Z,50.27
2019-04-05T08:04:09.679Z,50.03
2019-04-05T08:06:41.537Z,51.90
2019-04-05T08:09:12.892Z,53.33
2019-04-05T08:11:44.280Z,51.27
2019-04-05T08:14:18.047Z,56.00
2019-04-05T08:16:47.200Z,46.63
2019-04-05T08:19:16.747Z,50.40
2019-04-05T08:21:46.405Z,55.70
2019-04-05T08:24:16.020Z,55.20
2019-04-05T08:26:45.987Z,51.77
2019-04-05T08:29:15.860Z,54.93
2019-04-05T08:31:45.408Z,49.97
2019-04-05T08:34:15.043Z,44.10
2019-04-05T08:36:44.658Z,54.17
2019-04-05T08:39:14.286Z,52.40
2019-04-05T08:41:43.832Z,47.20
2019-04-05T08:44:13.460Z,45.90
2019-04-05T08:46:43.026Z,51.37
2019-04-05T08:49:12.513Z,56.47
2019-04-05T08:51:42.142Z,49.07
2019-04-05T08:54:11.740Z,51.70
2019-04-05T08:56:41.492Z,53.83
2019-04-05T08:59:11.478Z,50.77
2019-04-05T09:01:41.290Z,49.70
2019-04-05T09:04:10.854Z,51.00
2019-04-05T09:06:40.588Z,51.67
2019-04-05T09:09:10.302Z,56.73
2019-04-05T09:11:39.841Z,60.70
2019-04-05T09:14:09.460Z,58.27
2019-04-05T09:16:39.103Z,61.73
2019-04-05T09:19:08.584Z,57.13
2019-04-05T09:21:40.465Z,60.83
2019-04-05T09:24:09.467Z,61.07
2019-04-05T09:26:39.171Z,57.20
2019-04-05T09:29:09.449Z,61.27
2019-04-05T09:31:39.438Z,53.73
2019-04-05T09:34:09.224Z,53.67
2019-04-05T09:36:38.781Z,65.43
2019-04-05T09:39:15.014Z,56.17
2019-04-05T09:41:41.260Z,59.50
2019-04-05T09:44:10.800Z,59.00
2019-04-05T09:46:46.843Z,58.17
2019-04-05T09:49:11.961Z,60.73
2019-04-05T09:51:41.552Z,66.77
2019-04-05T09:54:11.160Z,62.97
2019-04-05T09:56:40.712Z,71.63
2019-04-05T09:59:10.325Z,60.27
2019-04-05T10:01:40.076Z,65.37
2019-04-05T10:04:09.548Z,59.73
2019-04-05T10:06:39.260Z,63.40
2019-04-05T10:09:09.081Z,69.47
2019-04-05T10:11:38.853Z,72.03
2019-04-05T10:14:08.578Z,67.90
2019-04-05T10:16:38.299Z,61.67
2019-04-05T10:19:07.935Z,73.13
2019-04-05T10:21:37.653Z,66.63
2019-04-05T10:24:07.203Z,57.27
2019-04-05T10:26:36.748Z,55.93
2019-04-05T10:29:06.296Z,67.23
2019-04-05T10:31:35.868Z,57.43
2019-04-05T10:34:05.419Z,61.57
2019-04-05T10:36:35.263Z,66.13
2019-04-05T10:39:08.492Z,66.67
2019-04-05T10:41:38.732Z,54.60
2019-04-05T10:44:09.984Z,65.40
2019-04-05T10:46:39.851Z,61.63
2019-04-05T10:49:09.528Z,57.07
2019-04-05T10:51:39.252Z,61.70
2019-04-05T10:54:09.661Z,61.17
2019-04-05T10:56:39.652Z,67.73
2019-04-05T10:59:09.198Z,65.87
2019-04-05T11:01:38.732Z,59.13
2019-04-05T11:04:08.285Z,70.00
2019-04-05T11:06:37.820Z,69.80
2019-04-05T11:09:07.740Z,56.70
2019-04-05T11:11:37.439Z,69.10
2019-04-05T11:14:13.614Z,61.70
2019-04-05T11:16:38.596Z,60.37
2019-04-05T11:19:08.299Z,63.00
2019-04-05T11:21:38.167Z,54.67
2019-04-05T11:24:07.898Z,54.40
2019-04-05T11:26:37.442Z,57.70
2019-04-05T11:29:06.995Z,62.10
2019-04-05T11:31:36.579Z,57.27
2019-04-05T11:34:06.256Z,61.47
2019-04-05T11:36:36.353Z,65.63
2019-04-05T11:39:10.113Z,56.47
2019-04-05T11:41:42.777Z,57.07
2019-04-05T11:44:12.884Z,65.03
2019-04-05T11:46:42.969Z,67.50
2019-04-05T11:49:14.892Z,55.67
2019-04-05T11:51:45.426Z,56.70
2019-04-05T11:54:18.440Z,64.20
2019-04-05T11:56:48.404Z,64.70
2019-04-05T11:59:19.716Z,53.70
2019-04-05T12:01:53.904Z,67.93
2019-04-05T12:04:23.569Z,68.83
2019-04-05T12:07:05.507Z,63.07
2019-04-05T12:09:35.135Z,59.30
2019-04-05T12:12:04.756Z,61.00
2019-04-05T12:14:34.515Z,64.20
2019-04-05T12:17:06.225Z,65.60
2019-04-05T12:19:38.105Z,66.23
2019-04-05T12:22:09.115Z,66.60
2019-04-05T12:24:38.652Z,58.70
2019-04-05T12:27:08.363Z,57.87
2019-04-05T12:29:38.072Z,62.77
2019-04-05T12:32:07.708Z,68.20
2019-04-05T12:34:37.489Z,63.40
2019-04-05T12:37:07.324Z,65.07
2019-04-05T12:39:37.299Z,70.17
2019-04-05T12:42:07.226Z,61.43
2019-04-05T12:44:36.869Z,70.67
2019-04-05T12:47:06.651Z,63.37
2019-04-05T12:49:54.536Z,70.77
2019-04-05T12:52:27.355Z,59.57
2019-04-05T12:54:56.087Z,65.93
2019-04-05T12:57:27.776Z,64.67
2019-04-05T12:59:57.207Z,70.63
2019-04-05T13:02:33.245Z,64.23
2019-04-05T13:04:58.067Z,63.40
2019-04-05T13:07:46.964Z,65.20
2019-04-05T13:10:16.778Z,61.50
2019-04-05T13:12:46.456Z,63.63
2019-04-05T13:15:17.301Z,73.63
2019-04-05T13:17:47.245Z,74.43
2019-04-05T13:20:17.112Z,59.83
2019-04-05T13:22:46.677Z,62.93
2019-04-05T13:25:16.212Z,58.67
2019-04-05T13:27:46.628Z,66.83
2019-04-05T13:30:18.303Z,63.47
2019-04-05T13:32:47.728Z,63.90
2019-04-05T13:35:17.529Z,59.40
2019-04-05T13:37:47.247Z,58.50
2019-04-05T13:40:16.858Z,52.90
2019-04-05T13:42:46.408Z,62.70
2019-04-05T13:45:16.116Z,58.67
2019-04-05T13:47:45.665Z,58.47
2019-04-05T13:50:15.545Z,56.90
2019-04-05T13:52:45.081Z,68.23
2019-04-05T13:55:14.858Z,57.20
2019-04-05T13:57:44.516Z,64.30
2019-04-05T14:00:18.201Z,62.30
2019-04-05T14:02:50.023Z,58.70
2019-04-05T14:05:19.344Z,65.13
2019-04-05T14:07:49.373Z,62.70
2019-04-05T14:10:19.116Z,59.17
2019-04-05T14:12:48.692Z,61.67
2019-04-05T14:15:18.228Z,58.80
2019-04-05T14:17:49.376Z,61.90
2019-04-05T14:20:20.644Z,59.43
2019-04-05T14:22:51.433Z,60.13
2019-04-05T14:25:21.446Z,58.83
2019-04-05T14:27:51.003Z,60.73
2019-04-05T14:30:20.743Z,67.53
2019-04-05T14:32:51.082Z,64.10
2019-04-05T14:35:24.547Z,62.90
2019-04-05T14:37:54.551Z,66.67
2019-04-05T14:40:28.387Z,59.53
2019-04-05T14:42:56.861Z,53.10
2019-04-05T14:45:26.507Z,58.53
2019-04-05T14:47:58.488Z,64.10
2019-04-05T14:50:28.312Z,61.83
2019-04-05T14:53:00.760Z,61.57
2019-04-05T14:55:30.590Z,63.77
2019-04-05T14:58:00.203Z,57.03
2019-04-05T15:00:29.821Z,59.43
2019-04-05T15:02:59.697Z,58.63
2019-04-05T15:05:29.704Z,65.67
2019-04-05T15:08:01.095Z,65.00
2019-04-05T15:10:30.863Z,65.30
2019-04-05T15:13:00.476Z,63.87
2019-04-05T15:15:30.288Z,65.67
2019-04-05T15:18:02.911Z,68.20
2019-04-05T15:20:32.690Z,65.67
2019-04-05T15:23:03.756Z,63.17
2019-04-05T15:25:33.297Z,63.73
2019-04-05T15:28:02.847Z,76.03
2019-04-05T15:30:32.465Z,65.37
2019-04-05T15:33:03.664Z,65.00
2019-04-05T15:35:33.151Z,66.60
2019-04-05T15:38:02.699Z,75.30
2019-04-05T15:40:32.314Z,63.07
2019-04-05T15:43:02.040Z,70.10
2019-04-05T15:45:31.571Z,64.87
2019-04-05T15:48:01.323Z,69.43
2019-04-05T15:50:31.150Z,66.60
2019-04-05T15:53:02.351Z,59.03
2019-04-05T15:55:34.298Z,62.60
2019-04-05T15:58:03.806Z,62.43
2019-04-05T16:00:42.285Z,63.10
2019-04-05T16:03:12.873Z,58.00
2019-04-05T16:05:43.476Z,62.50
2019-04-05T16:08:16.184Z,61.27
2019-04-05T16:10:46.080Z,63.90
2019-04-05T16:13:15.617Z,56.63
2019-04-05T16:15:45.547Z,54.77
2019-04-05T16:18:15.206Z,59.87
2019-04-05T16:20:44.734Z,56.60
2019-04-05T16:23:14.365Z,49.83
2019-04-05T16:25:44.201Z,57.77
2019-04-05T16:28:13.664Z,54.07
2019-04-05T16:30:43.303Z,61.00
2019-04-05T16:33:12.836Z,60.13
2019-04-05T16:35:42.384Z,55.13
2019-04-05T16:38:12.004Z,62.13
2019-04-05T16:40:41.523Z,54.37
2019-04-05T16:43:11.229Z,56.90
2019-04-05T16:45:40.821Z,59.63
2019-04-05T16:48:10.543Z,58.60
2019-04-05T16:50:42.244Z,67.83
2019-04-05T16:53:11.807Z,70.77
2019-04-05T16:55:41.783Z,63.50
2019-04-05T16:58:11.527Z,60.03
2019-04-05T17:00:41.344Z,60.03
2019-04-05T17:03:11.321Z,64.30
2019-04-05T17:05:40.971Z,57.47
2019-04-05T17:08:10.933Z,62.73
2019-04-05T17:10:40.893Z,59.00
2019-04-05T17:13:10.785Z,63.87
2019-04-05T17:15:40.469Z,63.03
2019-04-05T17:18:10.240Z,64.00
2019-04-05T17:20:39.784Z,66.20
2019-04-05T17:23:09.448Z,71.80
2019-04-05T17:25:39.105Z,72.13
2019-04-05T17:28:08.842Z,69.90
2019-04-05T17:30:38.483Z,74.93
2019-04-05T17:33:08.564Z,71.20
2019-04-05T17:35:38.211Z,74.80
2019-04-05T17:38:07.953Z,71.70
2019-04-05T17:40:37.640Z,77.03
2019-04-05T17:43:07.990Z,69.60
2019-04-05T17:45:37.763Z,71.27
2019-04-05T17:48:07.476Z,82.33
2019-04-05T17:50:37.358Z,72.40
2019-04-05T17:53:12.802Z,80.63
2019-04-05T17:55:38.508Z,79.03
2019-04-05T17:58:08.320Z,83.27
2019-04-05T18:00:38.174Z,84.50
2019-04-05T18:03:07.721Z,77.40
2019-04-05T18:05:37.260Z,79.63
2019-04-05T18:08:07.101Z,90.27
2019-04-05T18:10:36.683Z,81.80
2019-04-05T18:13:06.328Z,83.23
2019-04-05T18:15:36.352Z,90.37
2019-04-05T18:18:06.535Z,87.70
2019-04-05T18:20:36.559Z,89.37
2019-04-05T18:23:06.095Z,85.97
2019-04-05T18:25:35.794Z,91.70
2019-04-05T18:28:05.492Z,88.23
2019-04-05T18:30:35.160Z,89.87
2019-04-05T18:33:04.860Z,85.50
2019-04-05T18:35:34.437Z,90.30
2019-04-05T18:38:03.971Z,103.90
2019-04-05T18:40:39.866Z,91.23
2019-04-05T18:43:05.598Z,91.67
2019-04-05T18:45:35.412Z,92.50
2019-04-05T18:48:05.584Z,98.20
2019-04-05T18:50:35.275Z,103.73
2019-04-05T18:53:04.813Z,102.63
2019-04-05T18:55:34.448Z,105.23
2019-04-05T18:58:04.351Z,97.57
2019-04-05T19:00:33.923Z,111.37
2019-04-05T19:03:03.463Z,99.37
2019-04-05T19:05:33.034Z,120.43
2019-04-05T19:08:02.667Z,114.03
2019-04-05T19:10:37.208Z,118.87
2019-04-05T19:13:03.868Z,115.47
2019-04-05T19:15:33.412Z,110.53
2019-04-05T19:18:03.180Z,111.00
2019-04-05T19:20:33.034Z,126.93
2019-04-05T19:23:02.570Z,117.87
2019-04-05T19:25:32.131Z,118.27
2019-04-05T19:28:02.234Z,116.63
2019-04-05T19:50:42.821Z,113.97
2019-04-05T19:53:12.675Z,107.33
2019-04-05T19:55:42.229Z,115.90
2019-04-05T19:58:11.700Z,115.67
2019-04-05T20:00:41.583Z,103.03
2019-04-05T20:03:11.747Z,111.93
2019-04-05T20:05:41.548Z,105.60
2019-04-05T20:08:11.268Z,115.17
2019-04-05T20:10:40.799Z,119.80
2019-04-05T20:13:10.870Z,126.03
2019-04-05T20:15:40.408Z,118.87
2019-04-05T20:18:09.994Z,119.27
2019-04-05T20:20:39.594Z,117.37
2019-04-05T20:23:09.172Z,119.50
2019-04-05T20:25:38.704Z,123.13
2019-04-05T20:28:08.277Z,111.20
2019-04-05T20:30:37.808Z,113.97
2019-04-05T20:33:07.381Z,127.37
2019-04-05T20:35:37.415Z,116.90
2019-04-05T20:38:06.984Z,114.37
2019-04-05T20:40:36.687Z,126.50
2019-04-05T20:43:06.447Z,131.63
2019-04-05T20:45:36.075Z,121.97
2019-04-05T20:48:05.645Z,123.30
2019-04-05T20:50:35.672Z,130.20
2019-04-05T20:53:05.228Z,130.57
2019-04-05T20:55:37.212Z,120.33
2019-04-05T20:58:06.215Z,123.60
2019-04-05T21:00:35.748Z,125.47
2019-04-05T21:03:05.321Z,128.97
2019-04-05T21:05:34.849Z,132.87
2019-04-05T21:08:04.349Z,120.57
2019-04-05T21:10:34.089Z,126.20
2019-04-05T21:13:04.080Z,138.83
2019-04-05T21:15:33.603Z,130.13
2019-04-05T21:18:03.171Z,126.40
2019-04-05T21:20:32.707Z,124.23
2019-04-05T21:23:02.261Z,121.47
2019-04-05T21:25:31.787Z,121.77
2019-04-05T21:28:01.343Z,117.80
2019-04-05T21:30:30.801Z,118.93
2019-04-05T21:33:00.307Z,129.53
2019-04-05T21:35:29.845Z,118.20
2019-04-05T21:37:59.405Z,131.10
2019-04-05T21:40:28.865Z,125.53
2019-04-05T21:42:58.396Z,137.50
2019-04-05T21:45:27.953Z,123.57
2019-04-05T21:47:57.488Z,118.67
2019-04-05T21:50:27.120Z,133.73
2019-04-05T21:52:56.584Z,120.37
2019-04-05T21:55:26.224Z,127.47
2019-04-05T21:57:55.835Z,131.00
2019-04-05T22:00:28.543Z,120.37
2019-04-05T22:02:58.324Z,117.53
2019-04-05T22:05:29.707Z,113.77
2019-04-05T22:07:59.253Z,120.40
2019-04-05T22:10:29.184Z,122.63
2019-04-05T22:12:59.053Z,120.40
2019-04-05T22:15:28.633Z,109.13
2019-04-05T22:17:58.273Z,116.30
2019-04-05T22:20:27.804Z,135.53
2019-04-05T22:22:57.424Z,121.43
2019-04-05T22:25:27.151Z,114.27
2019-04-05T22:27:56.691Z,123.13
2019-04-05T22:30:26.363Z,128.90
2019-04-05T22:32:56.006Z,131.27
2019-04-05T22:35:25.476Z,132.67
2019-04-05T22:37:55.188Z,143.90
2019-04-05T22:40:24.736Z,143.43
2019-04-05T22:42:54.280Z,141.30
2019-04-05T22:45:23.824Z,150.93
2019-04-05T22:47:53.358Z,131.77
2019-04-05T22:50:22.904Z,131.80
2019-04-05T22:52:52.373Z,132.57
2019-04-05T22:55:21.989Z,136.13
2019-04-05T22:57:51.528Z,118.50
2019-04-05T23:00:21.241Z,128.83
2019-04-05T23:02:50.820Z,115.40
2019-04-05T23:05:20.379Z,114.07
2019-04-05T23:07:49.909Z,125.10
2019-04-05T23:10:19.457Z,119.07
2019-04-05T23:12:48.999Z,128.87
2019-04-05T23:15:18.543Z,137.40
2019-04-05T23:17:48.181Z,132.00
2019-04-05T23:20:17.725Z,144.20
2019-04-05T23:22:47.461Z,141.80
2019-04-05T23:25:22.326Z,156.40
2019-04-05T23:27:49.115Z,133.13
2019-04-05T23:30:19.467Z,129.93
2019-04-05T23:32:49.303Z,137.37
2019-04-05T23:35:19.332Z,134.93
2019-04-05T23:37:49.289Z,132.50
2019-04-05T23:40:18.836Z,130.43
2019-04-05T23:42:49.958Z,132.00
2019-04-05T23:45:19.755Z,133.30
2019-04-05T23:47:49.361Z,126.57
2019-04-05T23:50:18.971Z,132.30
2019-04-05T23:52:48.515Z,130.73
2019-04-05T23:55:18.340Z,135.67
2019-04-05T23:57:48.188Z,135.87
